MUCM/CMW METAR and TAF weather

Enter ICAO airport designator
Station Type Date Time Source
MUCM METAR 2020/03/25 17:51 UTC NOAA

MUCM 251751Z VRB03KT 9000 SCT020 32/16 Q1015


Station Type Date Time Source
MUCM Decoded METAR 2020/03/25 17:51 UTC NOAA

Camaguey Aeropuerto, Cuba (MUCM) 21-25N 077-51W 118M
Mar 25, 2020 - 01:51 PM EDT / 2020.03.25 1751 UTC
Wind: Variable at 3 MPH (3 KT):0
Visibility: 5 mile(s):0
Sky conditions: partly cloudy
Temperature: 89 F (32 C)
Dew Point: 60 F (16 C)
Relative Humidity: 38%
Pressure (altimeter): 29.97 in. Hg (1015 hPa)
ob: MUCM 251751Z VRB03KT 9000 SCT020 32/16 Q1015
cycle: 18

Station Type Date Time Source
MUCM TAF 2020/03/25 18:07 UTC NOAA

TAF MUCM 251700Z 2518/2618 VRB03KT 9000 SCT020
BECMG 2614/2617 07010KT

Example: see airport list